LEZG/ZAZ METAR and TAF weather

Enter ICAO airport designator
Station Type Date Time Source
LEZG METAR 2020/07/13 15:30 UTC NOAA

LEZG 131530Z 31019KT 280V340 CAVOK 31/11 Q1018


Station Type Date Time Source
LEZG Decoded METAR 2020/07/13 15:30 UTC NOAA

Zaragoza / Aeropuerto, Spain (LEZG) 41-40N 001-01W 258M
Jul 13, 2020 - 11:30 AM EDT / 2020.07.13 1530 UTC
Wind: from the NW (310 degrees) at 22 MPH (19 KT) (direction variable):0
Visibility: greater than 7 mile(s):0
Temperature: 87 F (31 C)
Dew Point: 51 F (11 C)
Relative Humidity: 29%
Pressure (altimeter): 30.06 in. Hg (1018 hPa)
ob: LEZG 131530Z 31019KT 280V340 CAVOK 31/11 Q1018
cycle: 15

Station Type Date Time Source
LEZG TAF 2020/07/13 12:27 UTC NOAA

TAF LEZG 131100Z 1312/1412 30013KT 9999 FEW060 TX33/1312Z TN16/1406Z
TEMPO 1313/1324 30015G30KT

Example: see airport list